sensor_id;sensor_type;location;lat;lon;timestamp;P1;durP1;ratioP1;P2;durP2;ratioP2
48092;SDS011;33873;47.442;18.902;2023-08-17T00:00:19;13.00;;;5.65;;
48092;SDS011;33873;47.442;18.902;2023-08-17T00:02:47;7.10;;;4.55;;
48092;SDS011;33873;47.442;18.902;2023-08-17T00:05:14;5.65;;;4.30;;
48092;SDS011;33873;47.442;18.902;2023-08-17T00:07:42;7.75;;;4.93;;
48092;SDS011;33873;47.442;18.902;2023-08-17T00:10:10;8.57;;;4.60;;
48092;SDS011;33873;47.442;18.902;2023-08-17T00:12:37;7.75;;;4.82;;
48092;SDS011;33873;47.442;18.902;2023-08-17T00:15:05;7.70;;;5.07;;
48092;SDS011;33873;47.442;18.902;2023-08-17T00:17:33;6.28;;;4.40;;
48092;SDS011;33873;47.442;18.902;2023-08-17T00:20:00;7.37;;;4.72;;
48092;SDS011;33873;47.442;18.902;2023-08-17T00:22:28;9.20;;;5.30;;
48092;SDS011;33873;47.442;18.902;2023-08-17T00:24:56;7.68;;;5.40;;
48092;SDS011;33873;47.442;18.902;2023-08-17T00:27:23;7.60;;;4.60;;
48092;SDS011;33873;47.442;18.902;2023-08-17T00:29:52;8.35;;;4.72;;
48092;SDS011;33873;47.442;18.902;2023-08-17T00:32:20;8.00;;;5.53;;
48092;SDS011;33873;47.442;18.902;2023-08-17T00:34:47;9.90;;;5.78;;
48092;SDS011;33873;47.442;18.902;2023-08-17T00:37:15;7.12;;;5.35;;
48092;SDS011;33873;47.442;18.902;2023-08-17T00:39:43;8.75;;;5.87;;
48092;SDS011;33873;47.442;18.902;2023-08-17T00:42:10;7.95;;;5.15;;
48092;SDS011;33873;47.442;18.902;2023-08-17T00:44:38;12.20;;;6.53;;
48092;SDS011;33873;47.442;18.902;2023-08-17T00:47:06;10.70;;;6.70;;
48092;SDS011;33873;47.442;18.902;2023-08-17T00:49:34;14.75;;;5.15;;
48092;SDS011;33873;47.442;18.902;2023-08-17T00:52:02;8.82;;;5.95;;
48092;SDS011;33873;47.442;18.902;2023-08-17T00:54:31;9.13;;;5.37;;
48092;SDS011;33873;47.442;18.902;2023-08-17T00:56:59;9.65;;;5.82;;
48092;SDS011;33873;47.442;18.902;2023-08-17T00:59:27;8.85;;;6.82;;
48092;SDS011;33873;47.442;18.902;2023-08-17T01:02:03;8.35;;;4.90;;
48092;SDS011;33873;47.442;18.902;2023-08-17T01:04:31;9.10;;;5.00;;
48092;SDS011;33873;47.442;18.902;2023-08-17T01:06:59;8.75;;;6.00;;
48092;SDS011;33873;47.442;18.902;2023-08-17T01:09:27;12.15;;;6.15;;
48092;SDS011;33873;47.442;18.902;2023-08-17T01:15:08;6.75;;;4.72;;
48092;SDS011;33873;47.442;18.902;2023-08-17T01:20:14;14.93;;;5.55;;
48092;SDS011;33873;47.442;18.902;2023-08-17T01:22:44;11.48;;;7.57;;
48092;SDS011;33873;47.442;18.902;2023-08-17T01:25:13;7.10;;;5.12;;
48092;SDS011;33873;47.442;18.902;2023-08-17T01:27:45;7.68;;;5.65;;
48092;SDS011;33873;47.442;18.902;2023-08-17T01:30:14;11.93;;;6.05;;
48092;SDS011;33873;47.442;18.902;2023-08-17T01:35:28;8.88;;;5.20;;
48092;SDS011;33873;47.442;18.902;2023-08-17T01:37:58;10.10;;;5.37;;
48092;SDS011;33873;47.442;18.902;2023-08-17T01:40:28;8.00;;;5.95;;
48092;SDS011;33873;47.442;18.902;2023-08-17T01:42:56;16.50;;;6.45;;
48092;SDS011;33873;47.442;18.902;2023-08-17T01:45:24;8.80;;;5.87;;
48092;SDS011;33873;47.442;18.902;2023-08-17T01:47:52;10.00;;;7.07;;
48092;SDS011;33873;47.442;18.902;2023-08-17T01:50:20;10.27;;;5.97;;
48092;SDS011;33873;47.442;18.902;2023-08-17T01:52:49;11.40;;;4.97;;
48092;SDS011;33873;47.442;18.902;2023-08-17T01:55:20;7.68;;;4.87;;
48092;SDS011;33873;47.442;18.902;2023-08-17T01:57:48;9.32;;;4.78;;
48092;SDS011;33873;47.442;18.902;2023-08-17T02:00:16;8.30;;;5.10;;
48092;SDS011;33873;47.442;18.902;2023-08-17T02:02:44;12.43;;;5.57;;
48092;SDS011;33873;47.442;18.902;2023-08-17T02:05:12;9.02;;;5.70;;
48092;SDS011;33873;47.442;18.902;2023-08-17T02:07:39;8.88;;;5.60;;
48092;SDS011;33873;47.442;18.902;2023-08-17T02:10:07;7.37;;;5.22;;
48092;SDS011;33873;47.442;18.902;2023-08-17T02:12:35;7.75;;;6.00;;
48092;SDS011;33873;47.442;18.902;2023-08-17T02:15:03;11.50;;;6.15;;
48092;SDS011;33873;47.442;18.902;2023-08-17T02:17:31;8.23;;;5.72;;
48092;SDS011;33873;47.442;18.902;2023-08-17T02:19:58;8.30;;;7.15;;
48092;SDS011;33873;47.442;18.902;2023-08-17T02:22:26;9.20;;;6.32;;
48092;SDS011;33873;47.442;18.902;2023-08-17T02:24:54;12.98;;;7.35;;
48092;SDS011;33873;47.442;18.902;2023-08-17T02:27:22;11.43;;;6.95;;
48092;SDS011;33873;47.442;18.902;2023-08-17T02:29:50;13.52;;;6.97;;
48092;SDS011;33873;47.442;18.902;2023-08-17T02:32:18;10.93;;;8.98;;
48092;SDS011;33873;47.442;18.902;2023-08-17T02:34:47;11.10;;;6.95;;
48092;SDS011;33873;47.442;18.902;2023-08-17T02:37:14;8.98;;;6.03;;
48092;SDS011;33873;47.442;18.902;2023-08-17T02:39:42;10.82;;;5.93;;
48092;SDS011;33873;47.442;18.902;2023-08-17T02:42:10;9.15;;;5.65;;
48092;SDS011;33873;47.442;18.902;2023-08-17T02:44:37;12.37;;;7.60;;
48092;SDS011;33873;47.442;18.902;2023-08-17T02:47:05;11.07;;;7.50;;
48092;SDS011;33873;47.442;18.902;2023-08-17T02:49:33;11.12;;;7.72;;
48092;SDS011;33873;47.442;18.902;2023-08-17T02:52:00;11.00;;;8.25;;
48092;SDS011;33873;47.442;18.902;2023-08-17T02:54:28;15.15;;;8.48;;
48092;SDS011;33873;47.442;18.902;2023-08-17T02:56:56;13.20;;;6.65;;
48092;SDS011;33873;47.442;18.902;2023-08-17T02:59:23;10.07;;;7.45;;
48092;SDS011;33873;47.442;18.902;2023-08-17T03:01:51;12.88;;;7.70;;
48092;SDS011;33873;47.442;18.902;2023-08-17T03:04:20;13.45;;;6.55;;
48092;SDS011;33873;47.442;18.902;2023-08-17T03:06:48;9.07;;;6.05;;
48092;SDS011;33873;47.442;18.902;2023-08-17T03:09:15;9.32;;;6.43;;
48092;SDS011;33873;47.442;18.902;2023-08-17T03:11:43;8.52;;;5.40;;
48092;SDS011;33873;47.442;18.902;2023-08-17T03:14:11;8.98;;;5.97;;
48092;SDS011;33873;47.442;18.902;2023-08-17T03:16:39;9.45;;;7.78;;
48092;SDS011;33873;47.442;18.902;2023-08-17T03:19:06;9.57;;;6.93;;
48092;SDS011;33873;47.442;18.902;2023-08-17T03:21:39;12.23;;;6.87;;
48092;SDS011;33873;47.442;18.902;2023-08-17T03:24:06;12.10;;;6.35;;
48092;SDS011;33873;47.442;18.902;2023-08-17T03:26:35;9.10;;;5.72;;
48092;SDS011;33873;47.442;18.902;2023-08-17T03:29:02;8.15;;;5.00;;
48092;SDS011;33873;47.442;18.902;2023-08-17T03:31:30;10.25;;;7.37;;
48092;SDS011;33873;47.442;18.902;2023-08-17T03:33:58;11.35;;;8.05;;
48092;SDS011;33873;47.442;18.902;2023-08-17T03:36:28;12.52;;;5.62;;
48092;SDS011;33873;47.442;18.902;2023-08-17T03:38:55;19.58;;;9.30;;
48092;SDS011;33873;47.442;18.902;2023-08-17T03:41:23;13.35;;;6.95;;
48092;SDS011;33873;47.442;18.902;2023-08-17T03:43:53;12.18;;;6.30;;
48092;SDS011;33873;47.442;18.902;2023-08-17T03:46:21;10.40;;;6.65;;
48092;SDS011;33873;47.442;18.902;2023-08-17T03:48:50;12.90;;;7.68;;
48092;SDS011;33873;47.442;18.902;2023-08-17T03:51:17;11.48;;;7.20;;
48092;SDS011;33873;47.442;18.902;2023-08-17T03:53:46;13.45;;;6.45;;
48092;SDS011;33873;47.442;18.902;2023-08-17T03:56:13;7.55;;;5.82;;
48092;SDS011;33873;47.442;18.902;2023-08-17T03:58:41;7.80;;;6.45;;
48092;SDS011;33873;47.442;18.902;2023-08-17T04:01:10;10.05;;;6.87;;
48092;SDS011;33873;47.442;18.902;2023-08-17T04:03:39;10.45;;;7.03;;
48092;SDS011;33873;47.442;18.902;2023-08-17T04:06:07;9.45;;;5.72;;
48092;SDS011;33873;47.442;18.902;2023-08-17T04:08:37;14.30;;;6.78;;
48092;SDS011;33873;47.442;18.902;2023-08-17T04:11:05;19.20;;;6.53;;
48092;SDS011;33873;47.442;18.902;2023-08-17T04:13:33;11.07;;;9.25;;
48092;SDS011;33873;47.442;18.902;2023-08-17T04:16:00;10.48;;;6.87;;
48092;SDS011;33873;47.442;18.902;2023-08-17T04:18:28;11.38;;;6.87;;
48092;SDS011;33873;47.442;18.902;2023-08-17T04:20:56;10.23;;;7.12;;
48092;SDS011;33873;47.442;18.902;2023-08-17T04:23:24;8.73;;;6.30;;
48092;SDS011;33873;47.442;18.902;2023-08-17T04:25:53;11.85;;;6.25;;
48092;SDS011;33873;47.442;18.902;2023-08-17T04:28:21;9.60;;;6.57;;
48092;SDS011;33873;47.442;18.902;2023-08-17T04:30:48;11.50;;;8.50;;
48092;SDS011;33873;47.442;18.902;2023-08-17T04:33:16;11.40;;;7.87;;
48092;SDS011;33873;47.442;18.902;2023-08-17T04:35:46;9.55;;;6.07;;
48092;SDS011;33873;47.442;18.902;2023-08-17T04:38:15;12.85;;;7.57;;
48092;SDS011;33873;47.442;18.902;2023-08-17T04:40:43;16.12;;;6.32;;
48092;SDS011;33873;47.442;18.902;2023-08-17T04:43:11;7.93;;;5.68;;
48092;SDS011;33873;47.442;18.902;2023-08-17T04:45:38;9.15;;;5.87;;
48092;SDS011;33873;47.442;18.902;2023-08-17T04:48:06;9.73;;;7.12;;
48092;SDS011;33873;47.442;18.902;2023-08-17T04:50:34;14.35;;;7.90;;
48092;SDS011;33873;47.442;18.902;2023-08-17T04:53:03;12.13;;;8.30;;
48092;SDS011;33873;47.442;18.902;2023-08-17T04:55:31;10.15;;;7.75;;
48092;SDS011;33873;47.442;18.902;2023-08-17T04:57:59;9.48;;;6.90;;
48092;SDS011;33873;47.442;18.902;2023-08-17T05:00:27;12.57;;;7.50;;
48092;SDS011;33873;47.442;18.902;2023-08-17T05:02:58;17.55;;;8.10;;
48092;SDS011;33873;47.442;18.902;2023-08-17T05:05:26;10.15;;;7.40;;
48092;SDS011;33873;47.442;18.902;2023-08-17T05:07:55;12.35;;;7.55;;
48092;SDS011;33873;47.442;18.902;2023-08-17T05:10:23;12.95;;;6.57;;
48092;SDS011;33873;47.442;18.902;2023-08-17T05:12:51;12.23;;;6.80;;
48092;SDS011;33873;47.442;18.902;2023-08-17T05:15:19;10.57;;;6.28;;
48092;SDS011;33873;47.442;18.902;2023-08-17T05:17:48;11.12;;;7.75;;
48092;SDS011;33873;47.442;18.902;2023-08-17T05:20:16;8.63;;;6.05;;
48092;SDS011;33873;47.442;18.902;2023-08-17T05:22:44;9.10;;;6.62;;
48092;SDS011;33873;47.442;18.902;2023-08-17T05:25:12;8.80;;;6.05;;
48092;SDS011;33873;47.442;18.902;2023-08-17T05:27:39;10.60;;;6.47;;
48092;SDS011;33873;47.442;18.902;2023-08-17T05:30:07;7.95;;;5.50;;
48092;SDS011;33873;47.442;18.902;2023-08-17T05:32:35;10.82;;;6.55;;
48092;SDS011;33873;47.442;18.902;2023-08-17T05:35:06;8.63;;;5.80;;
48092;SDS011;33873;47.442;18.902;2023-08-17T05:37:34;8.88;;;6.57;;
48092;SDS011;33873;47.442;18.902;2023-08-17T05:40:01;9.63;;;6.18;;
48092;SDS011;33873;47.442;18.902;2023-08-17T05:42:29;8.85;;;5.82;;
48092;SDS011;33873;47.442;18.902;2023-08-17T05:44:57;10.60;;;6.15;;
48092;SDS011;33873;47.442;18.902;2023-08-17T05:47:25;12.60;;;5.82;;
48092;SDS011;33873;47.442;18.902;2023-08-17T05:49:52;11.85;;;7.20;;
48092;SDS011;33873;47.442;18.902;2023-08-17T05:52:20;17.45;;;6.82;;
48092;SDS011;33873;47.442;18.902;2023-08-17T05:54:48;11.57;;;5.90;;
48092;SDS011;33873;47.442;18.902;2023-08-17T05:57:15;8.95;;;5.75;;
48092;SDS011;33873;47.442;18.902;2023-08-17T05:59:43;8.38;;;5.70;;
48092;SDS011;33873;47.442;18.902;2023-08-17T06:02:11;9.68;;;6.60;;
48092;SDS011;33873;47.442;18.902;2023-08-17T06:04:38;11.10;;;7.10;;
48092;SDS011;33873;47.442;18.902;2023-08-17T06:07:06;11.07;;;6.75;;
48092;SDS011;33873;47.442;18.902;2023-08-17T06:09:34;11.27;;;7.62;;
48092;SDS011;33873;47.442;18.902;2023-08-17T06:12:01;8.35;;;5.28;;
48092;SDS011;33873;47.442;18.902;2023-08-17T06:14:29;14.68;;;7.35;;
48092;SDS011;33873;47.442;18.902;2023-08-17T06:16:57;12.18;;;5.97;;
48092;SDS011;33873;47.442;18.902;2023-08-17T06:19:24;12.30;;;7.05;;
48092;SDS011;33873;47.442;18.902;2023-08-17T06:21:52;11.95;;;7.78;;
48092;SDS011;33873;47.442;18.902;2023-08-17T06:24:19;13.32;;;6.60;;
48092;SDS011;33873;47.442;18.902;2023-08-17T06:26:47;10.48;;;5.75;;
48092;SDS011;33873;47.442;18.902;2023-08-17T06:29:15;11.80;;;6.53;;
48092;SDS011;33873;47.442;18.902;2023-08-17T06:31:43;11.75;;;6.82;;
48092;SDS011;33873;47.442;18.902;2023-08-17T06:34:10;9.77;;;6.43;;
48092;SDS011;33873;47.442;18.902;2023-08-17T06:36:38;9.57;;;5.82;;
48092;SDS011;33873;47.442;18.902;2023-08-17T06:39:06;10.10;;;6.93;;
48092;SDS011;33873;47.442;18.902;2023-08-17T06:41:34;9.18;;;7.55;;
48092;SDS011;33873;47.442;18.902;2023-08-17T06:44:02;15.20;;;8.30;;
48092;SDS011;33873;47.442;18.902;2023-08-17T06:46:29;13.05;;;6.62;;
48092;SDS011;33873;47.442;18.902;2023-08-17T06:48:57;10.05;;;6.37;;
48092;SDS011;33873;47.442;18.902;2023-08-17T06:51:25;10.77;;;7.68;;
48092;SDS011;33873;47.442;18.902;2023-08-17T06:53:52;12.43;;;6.78;;
48092;SDS011;33873;47.442;18.902;2023-08-17T06:56:20;12.57;;;7.18;;
48092;SDS011;33873;47.442;18.902;2023-08-17T06:58:49;9.35;;;6.15;;
48092;SDS011;33873;47.442;18.902;2023-08-17T07:01:17;11.20;;;7.90;;
48092;SDS011;33873;47.442;18.902;2023-08-17T07:03:45;8.50;;;6.55;;
48092;SDS011;33873;47.442;18.902;2023-08-17T07:06:13;13.10;;;8.52;;
48092;SDS011;33873;47.442;18.902;2023-08-17T07:08:40;12.73;;;9.75;;
48092;SDS011;33873;47.442;18.902;2023-08-17T07:11:08;11.00;;;6.40;;
48092;SDS011;33873;47.442;18.902;2023-08-17T07:13:36;10.43;;;6.95;;
48092;SDS011;33873;47.442;18.902;2023-08-17T07:16:04;12.05;;;7.75;;
48092;SDS011;33873;47.442;18.902;2023-08-17T07:18:32;10.98;;;7.18;;
48092;SDS011;33873;47.442;18.902;2023-08-17T07:20:59;12.00;;;7.75;;
48092;SDS011;33873;47.442;18.902;2023-08-17T07:23:27;14.00;;;11.12;;
48092;SDS011;33873;47.442;18.902;2023-08-17T07:25:55;10.55;;;7.00;;
48092;SDS011;33873;47.442;18.902;2023-08-17T07:28:22;9.60;;;7.55;;
48092;SDS011;33873;47.442;18.902;2023-08-17T07:30:50;18.12;;;7.28;;
48092;SDS011;33873;47.442;18.902;2023-08-17T07:33:17;15.63;;;9.65;;
48092;SDS011;33873;47.442;18.902;2023-08-17T07:35:45;16.58;;;9.15;;
48092;SDS011;33873;47.442;18.902;2023-08-17T07:38:13;12.23;;;8.65;;
48092;SDS011;33873;47.442;18.902;2023-08-17T07:40:40;15.07;;;9.00;;
48092;SDS011;33873;47.442;18.902;2023-08-17T07:43:10;10.30;;;7.93;;
48092;SDS011;33873;47.442;18.902;2023-08-17T07:45:37;14.20;;;9.90;;
48092;SDS011;33873;47.442;18.902;2023-08-17T07:48:05;16.95;;;10.38;;
48092;SDS011;33873;47.442;18.902;2023-08-17T07:50:33;10.82;;;7.82;;
48092;SDS011;33873;47.442;18.902;2023-08-17T07:53:01;18.12;;;8.70;;
48092;SDS011;33873;47.442;18.902;2023-08-17T07:55:29;13.62;;;8.70;;
48092;SDS011;33873;47.442;18.902;2023-08-17T07:57:56;11.35;;;8.23;;
48092;SDS011;33873;47.442;18.902;2023-08-17T08:00:24;13.65;;;7.87;;
48092;SDS011;33873;47.442;18.902;2023-08-17T08:02:52;13.32;;;8.43;;
48092;SDS011;33873;47.442;18.902;2023-08-17T08:05:19;13.55;;;8.57;;
48092;SDS011;33873;47.442;18.902;2023-08-17T08:07:47;13.68;;;6.95;;
48092;SDS011;33873;47.442;18.902;2023-08-17T08:10:15;9.35;;;5.97;;
48092;SDS011;33873;47.442;18.902;2023-08-17T08:12:42;7.97;;;5.97;;
48092;SDS011;33873;47.442;18.902;2023-08-17T08:15:10;13.27;;;6.10;;
48092;SDS011;33873;47.442;18.902;2023-08-17T08:17:38;10.57;;;7.28;;
48092;SDS011;33873;47.442;18.902;2023-08-17T08:20:06;10.98;;;6.62;;
48092;SDS011;33873;47.442;18.902;2023-08-17T08:22:34;9.10;;;5.75;;
48092;SDS011;33873;47.442;18.902;2023-08-17T08:25:02;12.05;;;7.18;;
48092;SDS011;33873;47.442;18.902;2023-08-17T08:27:29;8.57;;;6.07;;
48092;SDS011;33873;47.442;18.902;2023-08-17T08:29:57;8.63;;;5.80;;
48092;SDS011;33873;47.442;18.902;2023-08-17T08:32:25;10.80;;;6.80;;
48092;SDS011;33873;47.442;18.902;2023-08-17T08:34:55;7.18;;;5.15;;
48092;SDS011;33873;47.442;18.902;2023-08-17T08:37:22;12.02;;;5.10;;
48092;SDS011;33873;47.442;18.902;2023-08-17T08:39:51;9.57;;;5.90;;
48092;SDS011;33873;47.442;18.902;2023-08-17T08:42:21;9.07;;;6.22;;
48092;SDS011;33873;47.442;18.902;2023-08-17T08:44:49;9.77;;;6.68;;
48092;SDS011;33873;47.442;18.902;2023-08-17T08:47:17;9.98;;;6.05;;
48092;SDS011;33873;47.442;18.902;2023-08-17T08:52:30;14.50;;;5.43;;
48092;SDS011;33873;47.442;18.902;2023-08-17T08:57:56;12.40;;;7.10;;
48092;SDS011;33873;47.442;18.902;2023-08-17T09:00:24;8.85;;;5.18;;
48092;SDS011;33873;47.442;18.902;2023-08-17T09:02:52;10.82;;;6.60;;
48092;SDS011;33873;47.442;18.902;2023-08-17T09:05:21;8.38;;;6.28;;
48092;SDS011;33873;47.442;18.902;2023-08-17T09:07:49;7.93;;;5.25;;
48092;SDS011;33873;47.442;18.902;2023-08-17T09:10:17;7.12;;;4.28;;
48092;SDS011;33873;47.442;18.902;2023-08-17T09:12:46;7.78;;;4.93;;
48092;SDS011;33873;47.442;18.902;2023-08-17T09:15:15;8.60;;;4.05;;
48092;SDS011;33873;47.442;18.902;2023-08-17T09:17:43;9.05;;;5.45;;
48092;SDS011;33873;47.442;18.902;2023-08-17T09:20:12;7.93;;;4.65;;
48092;SDS011;33873;47.442;18.902;2023-08-17T09:22:43;6.68;;;3.58;;
48092;SDS011;33873;47.442;18.902;2023-08-17T09:25:11;7.07;;;4.40;;
48092;SDS011;33873;47.442;18.902;2023-08-17T09:27:39;7.40;;;4.05;;
48092;SDS011;33873;47.442;18.902;2023-08-17T09:30:09;8.45;;;5.40;;
48092;SDS011;33873;47.442;18.902;2023-08-17T09:32:38;6.68;;;4.47;;
48092;SDS011;33873;47.442;18.902;2023-08-17T09:35:06;8.23;;;5.00;;
48092;SDS011;33873;47.442;18.902;2023-08-17T09:37:34;7.78;;;4.55;;
48092;SDS011;33873;47.442;18.902;2023-08-17T09:40:02;8.77;;;5.45;;
48092;SDS011;33873;47.442;18.902;2023-08-17T09:42:34;6.72;;;4.00;;
48092;SDS011;33873;47.442;18.902;2023-08-17T09:45:02;6.57;;;4.32;;
48092;SDS011;33873;47.442;18.902;2023-08-17T09:47:30;7.75;;;5.25;;
48092;SDS011;33873;47.442;18.902;2023-08-17T09:49:58;6.87;;;4.97;;
48092;SDS011;33873;47.442;18.902;2023-08-17T09:52:26;8.65;;;4.90;;
48092;SDS011;33873;47.442;18.902;2023-08-17T09:54:55;6.10;;;4.18;;
48092;SDS011;33873;47.442;18.902;2023-08-17T09:57:22;8.30;;;4.68;;
48092;SDS011;33873;47.442;18.902;2023-08-17T09:59:51;6.65;;;4.45;;
48092;SDS011;33873;47.442;18.902;2023-08-17T10:02:22;10.45;;;4.60;;
48092;SDS011;33873;47.442;18.902;2023-08-17T10:04:54;11.25;;;5.47;;
48092;SDS011;33873;47.442;18.902;2023-08-17T10:07:27;7.72;;;5.15;;
48092;SDS011;33873;47.442;18.902;2023-08-17T10:10:02;8.30;;;4.55;;
48092;SDS011;33873;47.442;18.902;2023-08-17T10:12:36;6.28;;;4.35;;
48092;SDS011;33873;47.442;18.902;2023-08-17T10:15:08;7.05;;;4.65;;
48092;SDS011;33873;47.442;18.902;2023-08-17T10:17:43;6.72;;;4.40;;
48092;SDS011;33873;47.442;18.902;2023-08-17T10:20:12;5.93;;;3.72;;
48092;SDS011;33873;47.442;18.902;2023-08-17T10:23:00;6.62;;;4.43;;
48092;SDS011;33873;47.442;18.902;2023-08-17T10:25:31;8.77;;;4.93;;
48092;SDS011;33873;47.442;18.902;2023-08-17T10:28:00;8.20;;;4.85;;
48092;SDS011;33873;47.442;18.902;2023-08-17T10:30:30;9.65;;;4.35;;
48092;SDS011;33873;47.442;18.902;2023-08-17T10:32:59;7.70;;;4.90;;
48092;SDS011;33873;47.442;18.902;2023-08-17T10:35:26;7.43;;;5.22;;
48092;SDS011;33873;47.442;18.902;2023-08-17T10:37:54;8.35;;;4.95;;
48092;SDS011;33873;47.442;18.902;2023-08-17T10:40:26;6.55;;;4.28;;
48092;SDS011;33873;47.442;18.902;2023-08-17T10:43:02;8.10;;;5.07;;
48092;SDS011;33873;47.442;18.902;2023-08-17T10:45:31;10.77;;;5.10;;
48092;SDS011;33873;47.442;18.902;2023-08-17T10:50:36;8.35;;;4.82;;
48092;SDS011;33873;47.442;18.902;2023-08-17T10:53:08;10.00;;;5.60;;
48092;SDS011;33873;47.442;18.902;2023-08-17T10:55:44;7.97;;;5.15;;
48092;SDS011;33873;47.442;18.902;2023-08-17T11:00:42;8.13;;;5.10;;
48092;SDS011;33873;47.442;18.902;2023-08-17T11:03:18;7.00;;;4.82;;
48092;SDS011;33873;47.442;18.902;2023-08-17T11:05:56;7.57;;;5.25;;
48092;SDS011;33873;47.442;18.902;2023-08-17T11:08:29;7.40;;;4.87;;
48092;SDS011;33873;47.442;18.902;2023-08-17T11:11:02;6.82;;;5.32;;
48092;SDS011;33873;47.442;18.902;2023-08-17T11:13:34;15.82;;;6.93;;
48092;SDS011;33873;47.442;18.902;2023-08-17T11:16:04;5.57;;;4.00;;
48092;SDS011;33873;47.442;18.902;2023-08-17T11:18:32;8.55;;;5.20;;
48092;SDS011;33873;47.442;18.902;2023-08-17T11:21:04;8.02;;;5.28;;
48092;SDS011;33873;47.442;18.902;2023-08-17T11:23:34;6.70;;;5.12;;
48092;SDS011;33873;47.442;18.902;2023-08-17T11:26:03;6.65;;;4.78;;
48092;SDS011;33873;47.442;18.902;2023-08-17T11:28:32;9.13;;;5.47;;
48092;SDS011;33873;47.442;18.902;2023-08-17T11:31:10;9.50;;;6.20;;
48092;SDS011;33873;47.442;18.902;2023-08-17T11:33:39;11.85;;;6.10;;
48092;SDS011;33873;47.442;18.902;2023-08-17T11:36:07;8.57;;;5.15;;
48092;SDS011;33873;47.442;18.902;2023-08-17T11:38:37;8.95;;;5.35;;
48092;SDS011;33873;47.442;18.902;2023-08-17T11:41:06;8.55;;;5.30;;
48092;SDS011;33873;47.442;18.902;2023-08-17T11:43:45;7.97;;;6.05;;
48092;SDS011;33873;47.442;18.902;2023-08-17T11:46:14;9.90;;;6.22;;
48092;SDS011;33873;47.442;18.902;2023-08-17T11:48:42;7.12;;;5.18;;
48092;SDS011;33873;47.442;18.902;2023-08-17T11:51:11;7.75;;;5.87;;
48092;SDS011;33873;47.442;18.902;2023-08-17T11:53:39;8.48;;;5.57;;
48092;SDS011;33873;47.442;18.902;2023-08-17T11:56:07;8.55;;;5.80;;
48092;SDS011;33873;47.442;18.902;2023-08-17T11:58:45;9.68;;;6.05;;
48092;SDS011;33873;47.442;18.902;2023-08-17T12:01:13;8.57;;;5.05;;
48092;SDS011;33873;47.442;18.902;2023-08-17T12:03:44;9.80;;;5.85;;
48092;SDS011;33873;47.442;18.902;2023-08-17T12:06:13;9.73;;;5.30;;
48092;SDS011;33873;47.442;18.902;2023-08-17T12:08:45;13.75;;;6.03;;
48092;SDS011;33873;47.442;18.902;2023-08-17T12:11:15;8.05;;;5.18;;
48092;SDS011;33873;47.442;18.902;2023-08-17T12:13:49;8.95;;;5.97;;
48092;SDS011;33873;47.442;18.902;2023-08-17T12:16:20;8.18;;;5.05;;
48092;SDS011;33873;47.442;18.902;2023-08-17T12:18:49;6.45;;;4.97;;
48092;SDS011;33873;47.442;18.902;2023-08-17T12:21:20;7.62;;;4.97;;
48092;SDS011;33873;47.442;18.902;2023-08-17T12:23:51;8.88;;;6.15;;
48092;SDS011;33873;47.442;18.902;2023-08-17T12:26:19;8.93;;;6.00;;
48092;SDS011;33873;47.442;18.902;2023-08-17T12:28:48;7.82;;;5.28;;
48092;SDS011;33873;47.442;18.902;2023-08-17T12:31:21;9.30;;;6.05;;
48092;SDS011;33873;47.442;18.902;2023-08-17T12:33:51;8.80;;;6.50;;
48092;SDS011;33873;47.442;18.902;2023-08-17T12:36:19;10.20;;;5.78;;
48092;SDS011;33873;47.442;18.902;2023-08-17T12:38:48;9.63;;;4.93;;
48092;SDS011;33873;47.442;18.902;2023-08-17T12:41:16;10.02;;;6.10;;
48092;SDS011;33873;47.442;18.902;2023-08-17T12:43:45;7.32;;;5.30;;
48092;SDS011;33873;47.442;18.902;2023-08-17T12:46:13;12.70;;;6.15;;
48092;SDS011;33873;47.442;18.902;2023-08-17T12:48:40;7.32;;;5.60;;
48092;SDS011;33873;47.442;18.902;2023-08-17T12:51:08;6.65;;;4.87;;
48092;SDS011;33873;47.442;18.902;2023-08-17T12:53:36;7.47;;;5.50;;
48092;SDS011;33873;47.442;18.902;2023-08-17T12:56:03;7.60;;;4.97;;
48092;SDS011;33873;47.442;18.902;2023-08-17T12:58:31;8.95;;;5.00;;
48092;SDS011;33873;47.442;18.902;2023-08-17T13:00:58;10.00;;;6.37;;
48092;SDS011;33873;47.442;18.902;2023-08-17T13:03:26;7.50;;;4.95;;
48092;SDS011;33873;47.442;18.902;2023-08-17T13:05:54;7.03;;;5.18;;
48092;SDS011;33873;47.442;18.902;2023-08-17T13:08:22;8.55;;;4.82;;
48092;SDS011;33873;47.442;18.902;2023-08-17T13:10:50;11.02;;;5.30;;
48092;SDS011;33873;47.442;18.902;2023-08-17T13:13:17;7.40;;;5.95;;
48092;SDS011;33873;47.442;18.902;2023-08-17T13:15:45;9.63;;;5.62;;
48092;SDS011;33873;47.442;18.902;2023-08-17T13:18:13;7.87;;;5.90;;
48092;SDS011;33873;47.442;18.902;2023-08-17T13:20:41;7.70;;;5.62;;
48092;SDS011;33873;47.442;18.902;2023-08-17T13:23:09;9.90;;;6.20;;
48092;SDS011;33873;47.442;18.902;2023-08-17T13:25:37;9.13;;;6.35;;
48092;SDS011;33873;47.442;18.902;2023-08-17T13:28:05;8.82;;;5.85;;
48092;SDS011;33873;47.442;18.902;2023-08-17T13:30:32;10.35;;;5.90;;
48092;SDS011;33873;47.442;18.902;2023-08-17T13:33:00;8.13;;;6.03;;
48092;SDS011;33873;47.442;18.902;2023-08-17T13:35:28;8.75;;;5.50;;
48092;SDS011;33873;47.442;18.902;2023-08-17T13:37:56;12.95;;;6.70;;
48092;SDS011;33873;47.442;18.902;2023-08-17T13:40:24;10.80;;;6.37;;
48092;SDS011;33873;47.442;18.902;2023-08-17T13:42:53;10.10;;;6.20;;
48092;SDS011;33873;47.442;18.902;2023-08-17T13:45:20;11.40;;;6.87;;
48092;SDS011;33873;47.442;18.902;2023-08-17T13:47:48;8.13;;;4.97;;
48092;SDS011;33873;47.442;18.902;2023-08-17T13:50:16;7.57;;;6.20;;
48092;SDS011;33873;47.442;18.902;2023-08-17T13:52:45;8.02;;;6.43;;
48092;SDS011;33873;47.442;18.902;2023-08-17T13:55:14;8.00;;;6.35;;
48092;SDS011;33873;47.442;18.902;2023-08-17T13:57:42;10.68;;;5.80;;
48092;SDS011;33873;47.442;18.902;2023-08-17T14:00:10;7.95;;;6.12;;
48092;SDS011;33873;47.442;18.902;2023-08-17T14:02:38;8.65;;;6.07;;
48092;SDS011;33873;47.442;18.902;2023-08-17T14:05:06;10.30;;;6.03;;
48092;SDS011;33873;47.442;18.902;2023-08-17T14:07:34;7.35;;;5.32;;
48092;SDS011;33873;47.442;18.902;2023-08-17T14:10:02;8.13;;;5.87;;
48092;SDS011;33873;47.442;18.902;2023-08-17T14:15:04;13.05;;;6.62;;
48092;SDS011;33873;47.442;18.902;2023-08-17T14:17:32;11.55;;;6.15;;
48092;SDS011;33873;47.442;18.902;2023-08-17T14:20:00;7.65;;;6.00;;
48092;SDS011;33873;47.442;18.902;2023-08-17T14:22:28;8.57;;;6.12;;
48092;SDS011;33873;47.442;18.902;2023-08-17T14:24:56;9.55;;;6.37;;
48092;SDS011;33873;47.442;18.902;2023-08-17T14:27:23;8.15;;;5.68;;
48092;SDS011;33873;47.442;18.902;2023-08-17T14:29:51;9.32;;;5.75;;
48092;SDS011;33873;47.442;18.902;2023-08-17T14:32:19;8.50;;;6.05;;
48092;SDS011;33873;47.442;18.902;2023-08-17T14:34:46;8.13;;;6.10;;
48092;SDS011;33873;47.442;18.902;2023-08-17T14:37:14;8.18;;;5.75;;
48092;SDS011;33873;47.442;18.902;2023-08-17T14:39:42;8.77;;;6.25;;
48092;SDS011;33873;47.442;18.902;2023-08-17T14:42:09;8.90;;;6.22;;
48092;SDS011;33873;47.442;18.902;2023-08-17T14:44:37;6.10;;;4.43;;
48092;SDS011;33873;47.442;18.902;2023-08-17T14:47:05;8.80;;;5.68;;
48092;SDS011;33873;47.442;18.902;2023-08-17T14:49:32;7.97;;;5.90;;
48092;SDS011;33873;47.442;18.902;2023-08-17T14:52:00;8.77;;;5.80;;
48092;SDS011;33873;47.442;18.902;2023-08-17T14:54:28;8.55;;;6.32;;
48092;SDS011;33873;47.442;18.902;2023-08-17T14:56:57;9.15;;;5.72;;